createdAt,value
2022-08-17T00:03:22.476Z,77.70
2022-08-17T00:08:27.555Z,78.90
2022-08-17T00:13:33.180Z,80.70
2022-08-17T00:19:06.323Z,78.30
2022-08-17T00:23:57.136Z,79.30
2022-08-17T00:28:58.990Z,82.00
2022-08-17T00:34:01.491Z,81.40
2022-08-17T00:39:04.270Z,83.20
2022-08-17T00:44:07.825Z,85.20
2022-08-17T00:49:10.898Z,85.60
2022-08-17T00:54:31.627Z,86.40
2022-08-17T00:59:43.198Z,88.10
2022-08-17T01:04:46.348Z,85.90
2022-08-17T01:09:48.887Z,87.60
2022-08-17T01:14:50.783Z,89.50
2022-08-17T01:19:52.695Z,87.60
2022-08-17T01:25:01.080Z,90.70
2022-08-17T01:30:58.580Z,91.60
2022-08-17T01:35:29.594Z,92.30
2022-08-17T01:40:41.004Z,92.20
2022-08-17T01:45:48.201Z,89.90
2022-08-17T01:51:07.204Z,91.40
2022-08-17T01:56:11.876Z,93.00
2022-08-17T02:01:14.943Z,93.30
2022-08-17T02:06:27.696Z,93.60
2022-08-17T02:11:30.252Z,94.00
2022-08-17T02:16:36.686Z,95.70
2022-08-17T02:21:40.251Z,94.30
2022-08-17T02:26:42.514Z,92.20
2022-08-17T02:31:44.417Z,96.20
2022-08-17T02:36:46.415Z,95.90
2022-08-17T02:41:48.951Z,95.60
2022-08-17T02:46:50.800Z,96.70
2022-08-17T02:51:52.683Z,97.80
2022-08-17T02:56:55.397Z,97.20
2022-08-17T03:01:57.426Z,99.50
2022-08-17T03:06:59.431Z,99.30
2022-08-17T03:12:07.160Z,99.40
2022-08-17T03:17:17.250Z,99.40
2022-08-17T03:22:36.247Z,99.70
2022-08-17T03:27:39.545Z,99.40
2022-08-17T03:32:47.196Z,99.90
2022-08-17T03:37:57.005Z,98.30
2022-08-17T03:43:08.022Z,99.80
2022-08-17T03:48:29.617Z,99.90
2022-08-17T03:53:50.078Z,99.00
2022-08-17T03:58:51.989Z,99.90
2022-08-17T04:03:54.919Z,99.90
2022-08-17T04:08:56.800Z,99.90
2022-08-17T04:13:58.942Z,99.90
2022-08-17T04:19:01.484Z,99.90
2022-08-17T04:24:05.146Z,99.90
2022-08-17T04:29:09.252Z,99.90
2022-08-17T04:34:12.513Z,99.90
2022-08-17T04:39:14.471Z,99.90
2022-08-17T04:44:37.236Z,99.90
2022-08-17T04:49:38.288Z,99.90
2022-08-17T04:54:40.176Z,99.90
2022-08-17T04:59:42.891Z,99.90
2022-08-17T05:04:44.808Z,99.90
2022-08-17T05:09:47.972Z,99.90
2022-08-17T05:14:49.831Z,99.90
2022-08-17T05:19:52.204Z,99.90
2022-08-17T05:24:55.638Z,99.90
2022-08-17T05:29:57.653Z,98.90
2022-08-17T05:35:00.526Z,99.90
2022-08-17T05:40:02.821Z,99.90
2022-08-17T05:45:05.563Z,97.50
2022-08-17T05:50:09.482Z,96.40
2022-08-17T05:55:28.339Z,92.30
2022-08-17T06:00:36.443Z,88.80
2022-08-17T06:06:03.996Z,87.20
2022-08-17T06:11:31.537Z,86.00
2022-08-17T06:16:41.116Z,79.60
2022-08-17T06:21:45.294Z,76.30
2022-08-17T06:26:48.044Z,76.50
2022-08-17T06:31:51.002Z,74.70
2022-08-17T06:37:52.000Z,72.70
2022-08-17T06:43:13.165Z,72.00
2022-08-17T06:48:31.104Z,69.00
2022-08-17T06:53:48.970Z,65.50
2022-08-17T06:58:56.043Z,64.00
2022-08-17T07:04:05.158Z,63.60
2022-08-17T07:09:35.913Z,63.50
2022-08-17T07:14:46.240Z,60.60
2022-08-17T07:19:50.036Z,62.00
2022-08-17T07:25:00.276Z,60.00
2022-08-17T07:30:17.801Z,58.30
2022-08-17T07:35:31.127Z,58.90
2022-08-17T07:41:05.005Z,58.10
2022-08-17T07:46:40.842Z,57.80
2022-08-17T07:51:42.679Z,55.80
2022-08-17T07:56:56.363Z,55.10
2022-08-17T08:02:06.199Z,55.90
2022-08-17T08:07:17.137Z,55.80
2022-08-17T08:12:39.168Z,53.90
2022-08-17T08:17:47.247Z,53.20
2022-08-17T08:23:01.400Z,53.70
2022-08-17T08:28:15.527Z,53.40
2022-08-17T08:33:25.260Z,52.90
2022-08-17T08:38:45.983Z,51.70
2022-08-17T08:44:14.583Z,51.00
2022-08-17T08:50:03.267Z,49.90
2022-08-17T08:55:15.407Z,49.80
2022-08-17T09:00:21.358Z,48.70
2022-08-17T09:05:39.230Z,49.90
2022-08-17T09:10:56.783Z,48.90
2022-08-17T09:16:29.594Z,48.60
2022-08-17T09:21:48.688Z,48.40
2022-08-17T09:27:09.040Z,48.30
2022-08-17T09:32:33.597Z,47.60
2022-08-17T09:38:02.496Z,47.90
2022-08-17T09:43:27.661Z,47.20
2022-08-17T09:48:32.218Z,46.40
2022-08-17T09:53:38.572Z,46.50
2022-08-17T09:58:44.739Z,46.10
2022-08-17T10:04:09.614Z,45.40
2022-08-17T10:09:20.525Z,44.80
2022-08-17T10:14:37.342Z,45.70
2022-08-17T10:19:55.664Z,44.20
2022-08-17T10:25:23.954Z,44.80
2022-08-17T10:30:31.816Z,44.60
2022-08-17T10:35:58.065Z,43.50
2022-08-17T10:41:35.713Z,43.00
2022-08-17T10:47:06.829Z,43.80
2022-08-17T10:52:20.874Z,43.70
2022-08-17T10:57:34.783Z,41.70
2022-08-17T11:02:41.297Z,43.10
2022-08-17T11:07:55.156Z,42.70
2022-08-17T11:13:10.973Z,43.10
2022-08-17T11:18:24.842Z,43.50
2022-08-17T11:23:45.247Z,43.30
2022-08-17T11:28:52.585Z,43.80
2022-08-17T11:34:02.129Z,42.10
2022-08-17T11:39:31.479Z,42.00
2022-08-17T11:44:39.324Z,42.60
2022-08-17T11:50:15.392Z,42.60
2022-08-17T11:55:35.848Z,42.90
2022-08-17T12:00:45.197Z,43.00
2022-08-17T12:05:47.178Z,43.30
2022-08-17T12:10:57.421Z,43.40
2022-08-17T12:15:59.607Z,41.40
2022-08-17T12:21:23.294Z,41.40
2022-08-17T12:26:30.513Z,40.60
2022-08-17T12:31:50.197Z,41.30
2022-08-17T12:37:01.242Z,41.30
2022-08-17T12:42:04.638Z,42.10
2022-08-17T12:47:22.766Z,39.80
2022-08-17T12:52:29.601Z,41.50
2022-08-17T12:57:34.729Z,40.10
2022-08-17T13:02:44.403Z,40.00
2022-08-17T13:07:46.880Z,40.30
2022-08-17T13:12:51.001Z,40.90
2022-08-17T13:18:04.038Z,40.80
2022-08-17T13:23:11.984Z,40.20
2022-08-17T13:28:33.601Z,40.40
2022-08-17T13:33:44.783Z,40.70
2022-08-17T13:38:49.751Z,40.00
2022-08-17T13:43:51.647Z,40.20
2022-08-17T13:49:12.136Z,40.90
2022-08-17T13:54:32.691Z,39.90
2022-08-17T13:59:53.004Z,41.20
2022-08-17T14:04:58.567Z,40.90
2022-08-17T14:10:13.614Z,40.30
2022-08-17T14:15:17.613Z,40.20
2022-08-17T14:20:21.765Z,39.70
2022-08-17T14:25:26.402Z,39.50
2022-08-17T14:30:29.969Z,39.30
2022-08-17T14:35:32.020Z,39.50
2022-08-17T14:40:35.213Z,39.30
2022-08-17T14:45:37.204Z,40.10
2022-08-17T14:50:41.820Z,40.40
2022-08-17T14:55:47.355Z,39.60
2022-08-17T15:00:51.083Z,40.50
2022-08-17T15:05:54.191Z,40.70
2022-08-17T15:10:56.015Z,40.30
2022-08-17T15:15:59.828Z,39.90
2022-08-17T15:21:05.804Z,39.60
2022-08-17T15:26:07.878Z,39.40
2022-08-17T15:31:09.745Z,39.20
2022-08-17T15:36:11.615Z,41.50
2022-08-17T15:41:17.902Z,40.40
2022-08-17T15:46:22.089Z,39.60
2022-08-17T15:51:33.065Z,39.70
2022-08-17T15:56:34.972Z,42.20
2022-08-17T16:03:01.271Z,41.10
2022-08-17T16:07:02.311Z,41.00
2022-08-17T16:12:11.809Z,41.50
2022-08-17T16:17:39.762Z,42.30
2022-08-17T16:22:39.632Z,42.40
2022-08-17T16:27:41.749Z,42.90
2022-08-17T16:32:43.905Z,42.40
2022-08-17T16:37:46.925Z,43.90
2022-08-17T16:42:50.282Z,44.70
2022-08-17T16:47:53.062Z,45.20
2022-08-17T16:53:06.422Z,44.90
2022-08-17T16:58:08.910Z,46.00
2022-08-17T17:03:19.355Z,46.50
2022-08-17T17:08:44.684Z,46.20
2022-08-17T17:13:58.431Z,48.70
2022-08-17T17:19:15.560Z,48.50
2022-08-17T17:24:30.092Z,47.60
2022-08-17T17:30:04.493Z,48.10
2022-08-17T17:35:28.990Z,50.30
2022-08-17T17:40:39.704Z,53.60
2022-08-17T17:45:48.103Z,55.00
2022-08-17T17:51:01.796Z,54.70
2022-08-17T17:56:39.882Z,56.10
2022-08-17T18:01:45.083Z,56.10
2022-08-17T18:07:12.439Z,56.40
2022-08-17T18:12:29.862Z,57.20
2022-08-17T18:17:33.424Z,56.80
2022-08-17T18:22:35.262Z,54.50
2022-08-17T18:27:38.968Z,56.10
2022-08-17T18:32:43.587Z,57.00
2022-08-17T18:37:47.063Z,57.30
2022-08-17T18:42:58.340Z,57.60
2022-08-17T18:48:20.840Z,58.30
2022-08-17T18:53:40.725Z,57.70
2022-08-17T18:58:42.972Z,59.80
2022-08-17T19:03:46.495Z,59.10
2022-08-17T19:08:48.442Z,59.60
2022-08-17T19:14:10.394Z,59.00
2022-08-17T19:19:13.365Z,59.50
2022-08-17T19:24:24.182Z,59.60
2022-08-17T19:30:05.314Z,60.60
2022-08-17T19:35:16.682Z,59.30
2022-08-17T19:40:48.892Z,60.30
2022-08-17T19:45:56.076Z,62.00
2022-08-17T19:51:04.683Z,61.80
2022-08-17T19:56:15.654Z,62.00
2022-08-17T20:01:38.521Z,62.10
2022-08-17T20:06:43.304Z,62.40
2022-08-17T20:11:54.545Z,63.40
2022-08-17T20:17:01.898Z,62.50
2022-08-17T20:22:50.362Z,62.80
2022-08-17T20:28:05.553Z,62.50
2022-08-17T20:33:24.689Z,63.70
2022-08-17T20:38:39.340Z,65.40
2022-08-17T20:43:53.391Z,65.40
2022-08-17T20:49:19.597Z,66.90
2022-08-17T20:54:48.270Z,66.90
2022-08-17T20:59:52.248Z,68.20
2022-08-17T21:04:54.525Z,67.50
2022-08-17T21:10:22.754Z,66.80
2022-08-17T21:15:32.713Z,67.00
2022-08-17T21:20:59.300Z,68.50
2022-08-17T21:26:10.387Z,69.90
2022-08-17T21:31:35.079Z,68.20
2022-08-17T21:36:36.906Z,69.10
2022-08-17T21:41:56.738Z,70.20
2022-08-17T21:47:14.607Z,70.40
2022-08-17T21:52:18.263Z,70.50
2022-08-17T21:57:22.515Z,70.90
2022-08-17T22:02:29.590Z,71.10
2022-08-17T22:07:38.986Z,70.40
2022-08-17T22:13:17.039Z,72.50
2022-08-17T22:18:27.462Z,73.70
2022-08-17T22:23:51.367Z,74.50
2022-08-17T22:28:56.528Z,75.90
2022-08-17T22:33:59.832Z,76.10
2022-08-17T22:39:08.389Z,77.60
2022-08-17T22:44:14.086Z,76.00
2022-08-17T22:49:22.998Z,74.70
2022-08-17T22:54:46.614Z,75.60
2022-08-17T22:59:55.103Z,74.50
2022-08-17T23:05:10.078Z,74.20
2022-08-17T23:10:13.020Z,74.50
2022-08-17T23:15:17.286Z,74.60
2022-08-17T23:20:19.257Z,75.80
2022-08-17T23:25:30.422Z,75.70
2022-08-17T23:30:34.665Z,75.70
2022-08-17T23:35:40.187Z,75.20
2022-08-17T23:40:42.933Z,75.50
2022-08-17T23:45:44.906Z,75.90
2022-08-17T23:50:46.744Z,78.60
2022-08-17T23:55:48.722Z,77.00
